sensor_id;sensor_type;location;lat;lon;timestamp;pressure;altitude;pressure_sealevel;temperature;humidity
8699;BME280;4386;51.236;6.742;2023-02-19T00:00:21;101370.34;;;12.25;88.95
8699;BME280;4386;51.236;6.742;2023-02-19T00:01:30;101366.75;;;12.26;88.86
8699;BME280;4386;51.236;6.742;2023-02-19T00:02:51;101364.19;;;12.24;88.64
8699;BME280;4386;51.236;6.742;2023-02-19T00:04:17;101366.97;;;12.23;88.85
8699;BME280;4386;51.236;6.742;2023-02-19T00:08:54;101366.13;;;12.22;88.89
8699;BME280;4386;51.236;6.742;2023-02-19T00:10:17;101370.81;;;12.19;88.60
8699;BME280;4386;51.236;6.742;2023-02-19T00:11:40;101362.94;;;12.17;88.60
8699;BME280;4386;51.236;6.742;2023-02-19T00:13:02;101372.63;;;12.18;88.85
8699;BME280;4386;51.236;6.742;2023-02-19T00:14:25;101365.50;;;12.19;88.68
8699;BME280;4386;51.236;6.742;2023-02-19T00:15:47;101360.19;;;12.19;88.80
8699;BME280;4386;51.236;6.742;2023-02-19T00:17:09;101366.44;;;12.18;88.68
8699;BME280;4386;51.236;6.742;2023-02-19T00:18:32;101365.50;;;12.19;88.83
8699;BME280;4386;51.236;6.742;2023-02-19T00:19:54;101362.94;;;12.17;88.79
8699;BME280;4386;51.236;6.742;2023-02-19T00:21:17;101364.88;;;12.15;88.57
8699;BME280;4386;51.236;6.742;2023-02-19T00:22:39;101360.41;;;12.16;88.61
8699;BME280;4386;51.236;6.742;2023-02-19T00:24:04;101360.41;;;12.16;88.66
8699;BME280;4386;51.236;6.742;2023-02-19T00:25:27;101350.88;;;12.13;88.73
8699;BME280;4386;51.236;6.742;2023-02-19T00:26:49;101365.00;;;12.14;88.67
8699;BME280;4386;51.236;6.742;2023-02-19T00:28:11;101363.31;;;12.13;88.57
8699;BME280;4386;51.236;6.742;2023-02-19T00:29:33;101348.31;;;12.12;88.59
8699;BME280;4386;51.236;6.742;2023-02-19T00:30:56;101346.63;;;12.11;88.57
8699;BME280;4386;51.236;6.742;2023-02-19T00:32:23;101345.88;;;12.09;88.56
8699;BME280;4386;51.236;6.742;2023-02-19T00:33:48;101340.81;;;12.06;88.71
8699;BME280;4386;51.236;6.742;2023-02-19T00:35:09;101341.75;;;12.05;88.51
8699;BME280;4386;51.236;6.742;2023-02-19T00:36:33;101346.25;;;12.04;88.54
8699;BME280;4386;51.236;6.742;2023-02-19T00:37:57;101349.00;;;12.02;88.59
8699;BME280;4386;51.236;6.742;2023-02-19T00:39:20;101341.03;;;12.02;88.61
8699;BME280;4386;51.236;6.742;2023-02-19T00:40:43;101342.00;;;12.01;88.81
8699;BME280;4386;51.236;6.742;2023-02-19T00:42:05;101331.34;;;12.01;88.75
8699;BME280;4386;51.236;6.742;2023-02-19T00:43:29;101343.69;;;12.02;88.73
8699;BME280;4386;51.236;6.742;2023-02-19T00:44:50;101339.34;;;12.01;88.71
8699;BME280;4386;51.236;6.742;2023-02-19T00:46:13;101349.97;;;12.01;88.63
8699;BME280;4386;51.236;6.742;2023-02-19T00:47:35;101336.69;;;12.01;88.63
8699;BME280;4386;51.236;6.742;2023-02-19T00:48:58;101343.78;;;12.01;88.56
8699;BME280;4386;51.236;6.742;2023-02-19T00:50:21;101331.50;;;12.00;88.89
8699;BME280;4386;51.236;6.742;2023-02-19T00:51:43;101335.00;;;12.00;88.69
8699;BME280;4386;51.236;6.742;2023-02-19T00:53:05;101344.66;;;12.01;88.92
8699;BME280;4386;51.236;6.742;2023-02-19T00:54:29;101342.00;;;12.01;88.92
8699;BME280;4386;51.236;6.742;2023-02-19T00:55:52;101335.72;;;12.02;88.86
8699;BME280;4386;51.236;6.742;2023-02-19T00:57:14;101333.91;;;12.03;88.88
8699;BME280;4386;51.236;6.742;2023-02-19T00:58:37;101330.41;;;12.02;89.04
8699;BME280;4386;51.236;6.742;2023-02-19T00:59:59;101338.38;;;12.02;88.98
8699;BME280;4386;51.236;6.742;2023-02-19T01:01:22;101336.44;;;12.05;88.72
8699;BME280;4386;51.236;6.742;2023-02-19T01:02:45;101333.91;;;12.03;88.88
8699;BME280;4386;51.236;6.742;2023-02-19T01:04:07;101334.78;;;12.04;88.89
8699;BME280;4386;51.236;6.742;2023-02-19T01:05:30;101331.25;;;12.03;89.04
8699;BME280;4386;51.236;6.742;2023-02-19T01:06:52;101331.25;;;12.03;88.98
8699;BME280;4386;51.236;6.742;2023-02-19T01:08:15;101333.06;;;12.02;88.85
8699;BME280;4386;51.236;6.742;2023-02-19T01:09:38;101329.47;;;12.04;88.86
8699;BME280;4386;51.236;6.742;2023-02-19T01:11:01;101339.09;;;12.05;88.93
8699;BME280;4386;51.236;6.742;2023-02-19T01:12:23;101334.78;;;12.04;88.91
8699;BME280;4386;51.236;6.742;2023-02-19T01:13:46;101328.47;;;12.05;89.02
8699;BME280;4386;51.236;6.742;2023-02-19T01:15:08;101327.53;;;12.06;89.20
8699;BME280;4386;51.236;6.742;2023-02-19T01:16:31;101331.88;;;12.07;89.05
8699;BME280;4386;51.236;6.742;2023-02-19T01:17:52;101335.41;;;12.07;88.95
8699;BME280;4386;51.236;6.742;2023-02-19T01:19:15;101330.09;;;12.07;89.00
8699;BME280;4386;51.236;6.742;2023-02-19T01:20:38;101332.59;;;12.09;89.12
8699;BME280;4386;51.236;6.742;2023-02-19T01:22:00;101327.28;;;12.09;89.22
8699;BME280;4386;51.236;6.742;2023-02-19T01:23:23;101332.38;;;12.12;89.10
8699;BME280;4386;51.236;6.742;2023-02-19T01:24:47;101333.22;;;12.12;89.10
8699;BME280;4386;51.236;6.742;2023-02-19T01:26:12;101330.47;;;12.14;89.11
8699;BME280;4386;51.236;6.742;2023-02-19T01:27:34;101328.78;;;12.13;89.17
8699;BME280;4386;51.236;6.742;2023-02-19T01:28:57;101329.63;;;12.13;89.22
8699;BME280;4386;51.236;6.742;2023-02-19T01:30:18;101326.09;;;12.13;89.12
8699;BME280;4386;51.236;6.742;2023-02-19T01:31:41;101333.22;;;12.12;88.84
8699;BME280;4386;51.236;6.742;2023-02-19T01:33:04;101331.44;;;12.13;88.75
8699;BME280;4386;51.236;6.742;2023-02-19T01:34:26;101340.34;;;12.12;89.08
8699;BME280;4386;51.236;6.742;2023-02-19T01:35:50;101330.56;;;12.12;88.66
8699;BME280;4386;51.236;6.742;2023-02-19T01:37:12;101331.53;;;12.11;88.71
8699;BME280;4386;51.236;6.742;2023-02-19T01:38:34;101336.75;;;12.13;88.95
8699;BME280;4386;51.236;6.742;2023-02-19T01:43:12;101334.09;;;12.13;88.71
8699;BME280;4386;51.236;6.742;2023-02-19T01:46:45;101328.78;;;12.13;88.81
8699;BME280;4386;51.236;6.742;2023-02-19T01:48:11;101333.31;;;12.11;88.56
8699;BME280;4386;51.236;6.742;2023-02-19T01:49:36;101337.81;;;12.10;88.40
8699;BME280;4386;51.236;6.742;2023-02-19T01:51:05;101336.22;;;12.08;88.34
8699;BME280;4386;51.236;6.742;2023-02-19T01:52:30;101337.31;;;12.05;88.51
8699;BME280;4386;51.236;6.742;2023-02-19T01:53:56;101334.78;;;12.04;88.30
8699;BME280;4386;51.236;6.742;2023-02-19T01:55:21;101330.50;;;12.01;88.37
8699;BME280;4386;51.236;6.742;2023-02-19T01:56:45;101338.59;;;11.99;88.16
8699;BME280;4386;51.236;6.742;2023-02-19T01:58:09;101330.75;;;11.98;88.24
8699;BME280;4386;51.236;6.742;2023-02-19T01:59:33;101339.56;;;11.98;88.50
8699;BME280;4386;51.236;6.742;2023-02-19T02:00:55;101340.53;;;11.97;88.19
8699;BME280;4386;51.236;6.742;2023-02-19T02:02:18;101345.00;;;11.97;88.20
8699;BME280;4386;51.236;6.742;2023-02-19T02:03:41;101343.28;;;11.96;88.17
8699;BME280;4386;51.236;6.742;2023-02-19T02:05:07;101339.78;;;11.95;88.04
8699;BME280;4386;51.236;6.742;2023-02-19T02:06:35;101340.75;;;11.94;88.28
8699;BME280;4386;51.236;6.742;2023-02-19T02:08:01;101346.28;;;11.91;88.23
8699;BME280;4386;51.236;6.742;2023-02-19T02:09:42;101342.69;;;11.92;88.26
8699;BME280;4386;51.236;6.742;2023-02-19T02:11:22;101354.16;;;11.93;88.18
8699;BME280;4386;51.236;6.742;2023-02-19T02:12:46;101352.56;;;11.90;88.53
8699;BME280;4386;51.236;6.742;2023-02-19T02:14:07;101350.88;;;11.89;88.21
8699;BME280;4386;51.236;6.742;2023-02-19T02:15:40;101346.41;;;11.90;88.38
8699;BME280;4386;51.236;6.742;2023-02-19T02:17:12;101346.50;;;11.88;88.23
8699;BME280;4386;51.236;6.742;2023-02-19T02:18:51;101341.31;;;11.87;88.45
8699;BME280;4386;51.236;6.742;2023-02-19T02:20:34;101343.13;;;11.86;88.65
8699;BME280;4386;51.236;6.742;2023-02-19T02:22:06;101348.44;;;11.86;88.51
8699;BME280;4386;51.236;6.742;2023-02-19T02:23:39;101347.72;;;11.84;88.55
8699;BME280;4386;51.236;6.742;2023-02-19T02:25:25;101350.38;;;11.84;88.57
8699;BME280;4386;51.236;6.742;2023-02-19T02:27:01;101351.31;;;11.83;88.50
8699;BME280;4386;51.236;6.742;2023-02-19T02:28:52;101348.66;;;11.83;88.69
8699;BME280;4386;51.236;6.742;2023-02-19T02:30:31;101344.31;;;11.82;88.68
8699;BME280;4386;51.236;6.742;2023-02-19T02:31:57;101344.44;;;11.81;88.58
8699;BME280;4386;51.236;6.742;2023-02-19T02:33:25;101342.72;;;11.80;88.61
8699;BME280;4386;51.236;6.742;2023-02-19T02:34:53;101345.47;;;11.78;88.48
8699;BME280;4386;51.236;6.742;2023-02-19T02:36:21;101348.28;;;11.77;88.75
8699;BME280;4386;51.236;6.742;2023-02-19T02:37:46;101342.97;;;11.77;88.77
8699;BME280;4386;51.236;6.742;2023-02-19T02:39:11;101342.09;;;11.76;88.79
8699;BME280;4386;51.236;6.742;2023-02-19T02:40:35;101352.72;;;11.76;88.80
8699;BME280;4386;51.236;6.742;2023-02-19T02:41:58;101337.66;;;11.77;88.98
8699;BME280;4386;51.236;6.742;2023-02-19T02:43:35;101336.78;;;11.76;88.98
8699;BME280;4386;51.236;6.742;2023-02-19T02:47:37;101347.50;;;11.75;88.98
8699;BME280;4386;51.236;6.742;2023-02-19T02:49:04;101345.00;;;11.73;88.84
8699;BME280;4386;51.236;6.742;2023-02-19T02:50:30;101344.13;;;11.73;89.00
8699;BME280;4386;51.236;6.742;2023-02-19T02:51:53;101335.31;;;11.72;89.05
8699;BME280;4386;51.236;6.742;2023-02-19T02:53:20;101335.31;;;11.72;89.05
8699;BME280;4386;51.236;6.742;2023-02-19T02:55:01;101348.59;;;11.72;89.22
8699;BME280;4386;51.236;6.742;2023-02-19T02:56:08;101342.34;;;11.73;89.02
8699;BME280;4386;51.236;6.742;2023-02-19T02:57:12;101345.84;;;11.74;89.18
8699;BME280;4386;51.236;6.742;2023-02-19T02:58:16;101343.06;;;11.75;89.09
8699;BME280;4386;51.236;6.742;2023-02-19T02:59:23;101344.66;;;11.78;89.44
8699;BME280;4386;51.236;6.742;2023-02-19T03:00:26;101346.47;;;11.77;89.31
8699;BME280;4386;51.236;6.742;2023-02-19T03:01:53;101345.47;;;11.78;89.25
8699;BME280;4386;51.236;6.742;2023-02-19T03:03:14;101351.78;;;11.77;89.02
8699;BME280;4386;51.236;6.742;2023-02-19T03:04:23;101344.66;;;11.78;89.11
8699;BME280;4386;51.236;6.742;2023-02-19T03:05:27;101354.44;;;11.77;89.29
8699;BME280;4386;51.236;6.742;2023-02-19T03:06:48;101354.31;;;11.79;89.17
8699;BME280;4386;51.236;6.742;2023-02-19T03:07:53;101351.78;;;11.77;89.07
8699;BME280;4386;51.236;6.742;2023-02-19T03:09:01;101349.97;;;11.78;89.42
8699;BME280;4386;51.236;6.742;2023-02-19T03:10:09;101356.09;;;11.78;89.17
8699;BME280;4386;51.236;6.742;2023-02-19T03:11:13;101358.66;;;11.80;89.13
8699;BME280;4386;51.236;6.742;2023-02-19T03:12:35;101365.91;;;11.78;89.18
8699;BME280;4386;51.236;6.742;2023-02-19T03:14:05;101364.06;;;11.78;89.07
8699;BME280;4386;51.236;6.742;2023-02-19T03:15:30;101361.41;;;11.78;89.23
8699;BME280;4386;51.236;6.742;2023-02-19T03:16:56;101359.53;;;11.80;89.19
8699;BME280;4386;51.236;6.742;2023-02-19T03:18:20;101368.44;;;11.79;89.27
8699;BME280;4386;51.236;6.742;2023-02-19T03:19:45;101366.72;;;11.78;89.32
8699;BME280;4386;51.236;6.742;2023-02-19T03:20:54;101364.94;;;11.79;89.11
8699;BME280;4386;51.236;6.742;2023-02-19T03:22:00;101370.13;;;11.80;89.34
8699;BME280;4386;51.236;6.742;2023-02-19T03:23:10;101372.66;;;11.82;89.23
8699;BME280;4386;51.236;6.742;2023-02-19T03:24:14;101372.66;;;11.82;89.34
8699;BME280;4386;51.236;6.742;2023-02-19T03:25:38;101383.28;;;11.82;89.07
8699;BME280;4386;51.236;6.742;2023-02-19T03:27:01;101369.16;;;11.81;89.18
8699;BME280;4386;51.236;6.742;2023-02-19T03:28:07;101368.22;;;11.82;89.25
8699;BME280;4386;51.236;6.742;2023-02-19T03:29:13;101376.09;;;11.84;89.28
8699;BME280;4386;51.236;6.742;2023-02-19T03:30:27;101377.88;;;11.83;89.20
8699;BME280;4386;51.236;6.742;2023-02-19T03:31:32;101377.88;;;11.83;89.33
8699;BME280;4386;51.236;6.742;2023-02-19T03:32:37;101376.94;;;11.84;89.11
8699;BME280;4386;51.236;6.742;2023-02-19T03:33:44;101376.94;;;11.84;89.38
8699;BME280;4386;51.236;6.742;2023-02-19T03:34:53;101380.31;;;11.86;89.27
8699;BME280;4386;51.236;6.742;2023-02-19T03:36:01;101379.59;;;11.84;89.12
8699;BME280;4386;51.236;6.742;2023-02-19T03:37:09;101381.38;;;11.84;89.37
8699;BME280;4386;51.236;6.742;2023-02-19T03:38:16;101380.41;;;11.85;89.35
8699;BME280;4386;51.236;6.742;2023-02-19T03:39:21;101392.75;;;11.86;89.29
8699;BME280;4386;51.236;6.742;2023-02-19T03:40:27;101381.25;;;11.85;89.22
8699;BME280;4386;51.236;6.742;2023-02-19T03:41:34;101375.94;;;11.85;89.15
8699;BME280;4386;51.236;6.742;2023-02-19T03:42:42;101384.78;;;11.86;89.39
8699;BME280;4386;51.236;6.742;2023-02-19T03:43:49;101386.47;;;11.87;89.03
8699;BME280;4386;51.236;6.742;2023-02-19T03:45:01;101382.97;;;11.86;89.29
8699;BME280;4386;51.236;6.742;2023-02-19T03:46:10;101385.63;;;11.86;89.20
8699;BME280;4386;51.236;6.742;2023-02-19T03:47:19;101377.75;;;11.85;89.00
8699;BME280;4386;51.236;6.742;2023-02-19T03:48:29;101380.31;;;11.86;89.28
8699;BME280;4386;51.236;6.742;2023-02-19T03:49:43;101380.41;;;11.85;89.04
8699;BME280;4386;51.236;6.742;2023-02-19T03:50:53;101383.91;;;11.85;89.31
8699;BME280;4386;51.236;6.742;2023-02-19T03:52:01;101396.25;;;11.86;89.01
8699;BME280;4386;51.236;6.742;2023-02-19T03:53:10;101396.34;;;11.85;89.11
8699;BME280;4386;51.236;6.742;2023-02-19T03:54:18;101402.50;;;11.85;89.15
8699;BME280;4386;51.236;6.742;2023-02-19T03:55:28;101399.00;;;11.85;89.01
8699;BME280;4386;51.236;6.742;2023-02-19T03:56:34;101398.19;;;11.84;89.00
8699;BME280;4386;51.236;6.742;2023-02-19T03:57:45;101390.94;;;11.86;89.03
8699;BME280;4386;51.236;6.742;2023-02-19T03:58:54;101396.25;;;11.86;89.08
8699;BME280;4386;51.236;6.742;2023-02-19T04:00:03;101398.78;;;11.88;88.97
8699;BME280;4386;51.236;6.742;2023-02-19T04:01:25;101398.78;;;11.88;88.76
8699;BME280;4386;51.236;6.742;2023-02-19T04:02:33;101400.63;;;11.87;88.99
8699;BME280;4386;51.236;6.742;2023-02-19T04:03:39;101398.78;;;11.88;88.84
8699;BME280;4386;51.236;6.742;2023-02-19T04:05:29;101399.63;;;11.88;88.88
8699;BME280;4386;51.236;6.742;2023-02-19T04:06:46;101401.34;;;11.89;88.75
8699;BME280;4386;51.236;6.742;2023-02-19T04:07:56;101402.19;;;11.90;88.76
8699;BME280;4386;51.236;6.742;2023-02-19T04:09:01;101402.19;;;11.90;88.85
8699;BME280;4386;51.236;6.742;2023-02-19T04:10:06;101406.56;;;11.91;88.80
8699;BME280;4386;51.236;6.742;2023-02-19T04:11:09;101405.69;;;11.90;88.79
8699;BME280;4386;51.236;6.742;2023-02-19T04:12:13;101411.97;;;11.89;88.61
8699;BME280;4386;51.236;6.742;2023-02-19T04:13:19;101406.66;;;11.89;88.53
8699;BME280;4386;51.236;6.742;2023-02-19T04:14:27;101411.97;;;11.89;88.57
8699;BME280;4386;51.236;6.742;2023-02-19T04:15:32;101411.97;;;11.89;88.42
8699;BME280;4386;51.236;6.742;2023-02-19T04:16:37;101417.28;;;11.89;88.33
8699;BME280;4386;51.236;6.742;2023-02-19T04:17:45;101419.94;;;11.89;88.38
8699;BME280;4386;51.236;6.742;2023-02-19T04:19:03;101422.59;;;11.89;88.26
8699;BME280;4386;51.236;6.742;2023-02-19T04:20:09;101415.56;;;11.88;88.20
8699;BME280;4386;51.236;6.742;2023-02-19T04:21:13;101422.59;;;11.89;88.41
8699;BME280;4386;51.236;6.742;2023-02-19T04:22:16;101418.22;;;11.88;88.06
8699;BME280;4386;51.236;6.742;2023-02-19T04:23:23;101427.03;;;11.89;88.28
8699;BME280;4386;51.236;6.742;2023-02-19T04:24:33;101422.59;;;11.89;88.16
8699;BME280;4386;51.236;6.742;2023-02-19T04:25:49;101427.91;;;11.89;88.04
8699;BME280;4386;51.236;6.742;2023-02-19T04:26:53;101427.91;;;11.89;88.28
8699;BME280;4386;51.236;6.742;2023-02-19T04:27:55;101438.53;;;11.89;88.01
8699;BME280;4386;51.236;6.742;2023-02-19T04:28:59;101436.81;;;11.88;88.16
8699;BME280;4386;51.236;6.742;2023-02-19T04:30:05;101430.56;;;11.89;88.14
8699;BME280;4386;51.236;6.742;2023-02-19T04:31:09;101441.19;;;11.89;87.96
8699;BME280;4386;51.236;6.742;2023-02-19T04:32:21;101447.34;;;11.90;87.93
8699;BME280;4386;51.236;6.742;2023-02-19T04:33:24;101443.84;;;11.89;88.08
8699;BME280;4386;51.236;6.742;2023-02-19T04:34:26;101435.97;;;11.88;87.98
8699;BME280;4386;51.236;6.742;2023-02-19T04:35:28;101441.19;;;11.89;87.81
8699;BME280;4386;51.236;6.742;2023-02-19T04:36:32;101446.59;;;11.88;87.89
8699;BME280;4386;51.236;6.742;2023-02-19T04:37:36;101442.13;;;11.88;87.69
8699;BME280;4386;51.236;6.742;2023-02-19T04:38:40;101446.59;;;11.88;87.53
8699;BME280;4386;51.236;6.742;2023-02-19T04:39:51;101439.59;;;11.87;87.85
8699;BME280;4386;51.236;6.742;2023-02-19T04:40:54;101447.44;;;11.88;87.72
8699;BME280;4386;51.236;6.742;2023-02-19T04:41:56;101441.28;;;11.88;87.75
8699;BME280;4386;51.236;6.742;2023-02-19T04:42:59;101443.84;;;11.89;87.70
8699;BME280;4386;51.236;6.742;2023-02-19T04:44:00;101452.75;;;11.88;87.59
8699;BME280;4386;51.236;6.742;2023-02-19T04:45:03;101448.41;;;11.87;87.51
8699;BME280;4386;51.236;6.742;2023-02-19T04:46:05;101454.69;;;11.86;87.72
8699;BME280;4386;51.236;6.742;2023-02-19T04:47:07;101452.88;;;11.87;87.42
8699;BME280;4386;51.236;6.742;2023-02-19T04:48:19;101456.38;;;11.87;87.50
8699;BME280;4386;51.236;6.742;2023-02-19T04:49:21;101459.13;;;11.86;87.48
8699;BME280;4386;51.236;6.742;2023-02-19T04:50:23;101459.13;;;11.86;87.47
8699;BME280;4386;51.236;6.742;2023-02-19T04:51:26;101459.13;;;11.86;87.23
8699;BME280;4386;51.236;6.742;2023-02-19T04:52:29;101463.59;;;11.85;87.01
8699;BME280;4386;51.236;6.742;2023-02-19T04:53:33;101456.59;;;11.84;87.10
8699;BME280;4386;51.236;6.742;2023-02-19T04:54:35;101466.25;;;11.85;87.24
8699;BME280;4386;51.236;6.742;2023-02-19T04:55:38;101458.28;;;11.85;87.36
8699;BME280;4386;51.236;6.742;2023-02-19T04:56:50;101456.59;;;11.84;87.19
8699;BME280;4386;51.236;6.742;2023-02-19T04:58:02;101463.59;;;11.85;87.22
8699;BME280;4386;51.236;6.742;2023-02-19T04:59:04;101465.31;;;11.86;87.31
8699;BME280;4386;51.236;6.742;2023-02-19T05:00:08;101467.22;;;11.84;87.17
8699;BME280;4386;51.236;6.742;2023-02-19T05:01:12;101475.19;;;11.84;86.82
8699;BME280;4386;51.236;6.742;2023-02-19T05:02:15;101476.16;;;11.83;87.13
8699;BME280;4386;51.236;6.742;2023-02-19T05:03:17;101469.03;;;11.84;87.09
8699;BME280;4386;51.236;6.742;2023-02-19T05:04:19;101475.28;;;11.83;87.16
8699;BME280;4386;51.236;6.742;2023-02-19T05:05:21;101477.84;;;11.84;87.04
8699;BME280;4386;51.236;6.742;2023-02-19T05:06:24;101475.28;;;11.83;87.09
8699;BME280;4386;51.236;6.742;2023-02-19T05:07:28;101475.28;;;11.83;87.07
8699;BME280;4386;51.236;6.742;2023-02-19T05:08:31;101484.13;;;11.83;86.84
8699;BME280;4386;51.236;6.742;2023-02-19T05:09:33;101485.06;;;11.82;86.86
8699;BME280;4386;51.236;6.742;2023-02-19T05:10:35;101487.72;;;11.82;87.06
8699;BME280;4386;51.236;6.742;2023-02-19T05:11:37;101486.00;;;11.81;86.76
8699;BME280;4386;51.236;6.742;2023-02-19T05:12:39;101489.66;;;11.80;86.86
8699;BME280;4386;51.236;6.742;2023-02-19T05:13:41;101492.31;;;11.80;86.63
8699;BME280;4386;51.236;6.742;2023-02-19T05:14:44;101490.59;;;11.79;86.62
8699;BME280;4386;51.236;6.742;2023-02-19T05:15:53;101494.19;;;11.78;86.66
8699;BME280;4386;51.236;6.742;2023-02-19T05:16:56;101495.19;;;11.77;86.63
8699;BME280;4386;51.236;6.742;2023-02-19T05:17:58;101491.66;;;11.77;86.74
8699;BME280;4386;51.236;6.742;2023-02-19T05:19:11;101497.84;;;11.77;86.68
8699;BME280;4386;51.236;6.742;2023-02-19T05:20:13;101503.16;;;11.77;86.78
8699;BME280;4386;51.236;6.742;2023-02-19T05:21:15;101503.16;;;11.77;86.50
8699;BME280;4386;51.236;6.742;2023-02-19T05:22:17;101504.81;;;11.78;86.62
8699;BME280;4386;51.236;6.742;2023-02-19T05:23:21;101502.28;;;11.77;86.72
8699;BME280;4386;51.236;6.742;2023-02-19T05:24:23;101507.59;;;11.77;86.49
8699;BME280;4386;51.236;6.742;2023-02-19T05:25:27;101505.88;;;11.76;86.32
8699;BME280;4386;51.236;6.742;2023-02-19T05:26:29;101517.47;;;11.75;86.54
8699;BME280;4386;51.236;6.742;2023-02-19T05:27:32;101512.28;;;11.73;86.50
8699;BME280;4386;51.236;6.742;2023-02-19T05:28:37;101513.97;;;11.74;86.49
8699;BME280;4386;51.236;6.742;2023-02-19T05:29:40;101515.03;;;11.72;86.29
8699;BME280;4386;51.236;6.742;2023-02-19T05:30:41;101515.88;;;11.72;86.50
8699;BME280;4386;51.236;6.742;2023-02-19T05:31:44;101521.19;;;11.72;86.49
8699;BME280;4386;51.236;6.742;2023-02-19T05:32:46;101520.25;;;11.73;86.60
8699;BME280;4386;51.236;6.742;2023-02-19T05:33:48;101517.59;;;11.73;86.31
8699;BME280;4386;51.236;6.742;2023-02-19T05:34:51;101523.75;;;11.74;86.46
8699;BME280;4386;51.236;6.742;2023-02-19T05:36:06;101518.44;;;11.74;86.51
8699;BME280;4386;51.236;6.742;2023-02-19T05:37:16;101517.59;;;11.73;86.37
8699;BME280;4386;51.236;6.742;2023-02-19T05:38:22;101523.75;;;11.74;86.24
8699;BME280;4386;51.236;6.742;2023-02-19T05:39:24;101528.09;;;11.75;86.11
8699;BME280;4386;51.236;6.742;2023-02-19T05:40:27;101521.94;;;11.74;86.41
8699;BME280;4386;51.236;6.742;2023-02-19T05:41:29;101531.59;;;11.75;86.38
8699;BME280;4386;51.236;6.742;2023-02-19T05:42:31;101527.13;;;11.76;86.01
8699;BME280;4386;51.236;6.742;2023-02-19T05:43:33;101524.59;;;11.74;86.22
8699;BME280;4386;51.236;6.742;2023-02-19T05:44:36;101528.22;;;11.73;86.16
8699;BME280;4386;51.236;6.742;2023-02-19T05:45:38;101526.50;;;11.72;86.24
8699;BME280;4386;51.236;6.742;2023-02-19T05:46:41;101532.78;;;11.71;86.26
8699;BME280;4386;51.236;6.742;2023-02-19T05:47:42;101534.59;;;11.71;86.25
8699;BME280;4386;51.236;6.742;2023-02-19T05:48:45;101531.09;;;11.70;86.21
8699;BME280;4386;51.236;6.742;2023-02-19T05:49:47;101534.66;;;11.69;86.47
8699;BME280;4386;51.236;6.742;2023-02-19T05:50:50;101535.50;;;11.70;86.16
8699;BME280;4386;51.236;6.742;2023-02-19T05:52:02;101540.91;;;11.68;86.30
8699;BME280;4386;51.236;6.742;2023-02-19T05:53:05;101534.66;;;11.69;86.17
8699;BME280;4386;51.236;6.742;2023-02-19T05:54:08;101531.09;;;11.70;86.12
8699;BME280;4386;51.236;6.742;2023-02-19T05:55:11;101539.97;;;11.69;86.15
8699;BME280;4386;51.236;6.742;2023-02-19T05:56:26;101542.63;;;11.69;85.99
8699;BME280;4386;51.236;6.742;2023-02-19T05:57:32;101540.09;;;11.68;86.26
8699;BME280;4386;51.236;6.742;2023-02-19T05:58:33;101540.91;;;11.68;86.17
8699;BME280;4386;51.236;6.742;2023-02-19T05:59:36;101549.84;;;11.67;86.24
8699;BME280;4386;51.236;6.742;2023-02-19T06:00:38;101545.47;;;11.66;86.20
8699;BME280;4386;51.236;6.742;2023-02-19T06:01:41;101537.53;;;11.66;86.07
8699;BME280;4386;51.236;6.742;2023-02-19T06:02:53;101551.75;;;11.65;86.23
8699;BME280;4386;51.236;6.742;2023-02-19T06:03:56;101542.09;;;11.64;85.98
8699;BME280;4386;51.236;6.742;2023-02-19T06:04:58;101546.66;;;11.62;86.14
8699;BME280;4386;51.236;6.742;2023-02-19T06:06:02;101545.69;;;11.63;86.10
8699;BME280;4386;51.236;6.742;2023-02-19T06:07:03;101546.66;;;11.62;86.22
8699;BME280;4386;51.236;6.742;2023-02-19T06:08:06;101547.50;;;11.63;86.24
8699;BME280;4386;51.236;6.742;2023-02-19T06:09:09;101551.00;;;11.63;86.28
8699;BME280;4386;51.236;6.742;2023-02-19T06:10:12;101550.16;;;11.63;86.40
8699;BME280;4386;51.236;6.742;2023-02-19T06:11:14;101548.34;;;11.63;86.19
8699;BME280;4386;51.236;6.742;2023-02-19T06:12:21;101551.00;;;11.63;86.19
8699;BME280;4386;51.236;6.742;2023-02-19T06:13:24;101545.78;;;11.62;86.26
8699;BME280;4386;51.236;6.742;2023-02-19T06:14:25;101545.78;;;11.62;86.24
8699;BME280;4386;51.236;6.742;2023-02-19T06:15:38;101552.94;;;11.61;86.17
8699;BME280;4386;51.236;6.742;2023-02-19T06:16:40;101551.97;;;11.62;86.19
8699;BME280;4386;51.236;6.742;2023-02-19T06:17:43;101549.44;;;11.61;86.04
8699;BME280;4386;51.236;6.742;2023-02-19T06:18:44;101552.94;;;11.61;85.95
8699;BME280;4386;51.236;6.742;2023-02-19T06:19:57;101545.91;;;11.60;85.86
8699;BME280;4386;51.236;6.742;2023-02-19T06:20:59;101552.16;;;11.59;86.01
8699;BME280;4386;51.236;6.742;2023-02-19T06:22:02;101561.84;;;11.60;85.94
8699;BME280;4386;51.236;6.742;2023-02-19T06:23:04;101560.03;;;11.61;85.90
8699;BME280;4386;51.236;6.742;2023-02-19T06:24:09;101553.88;;;11.60;85.76
8699;BME280;4386;51.236;6.742;2023-02-19T06:25:10;101555.69;;;11.60;86.04
8699;BME280;4386;51.236;6.742;2023-02-19T06:26:15;101557.47;;;11.59;85.99
8699;BME280;4386;51.236;6.742;2023-02-19T06:27:18;101553.97;;;11.59;85.83
8699;BME280;4386;51.236;6.742;2023-02-19T06:28:21;101557.47;;;11.59;86.02
8699;BME280;4386;51.236;6.742;2023-02-19T06:29:23;101561.13;;;11.58;85.93
8699;BME280;4386;51.236;6.742;2023-02-19T06:30:25;101560.13;;;11.59;85.88
8699;BME280;4386;51.236;6.742;2023-02-19T06:31:27;101562.91;;;11.58;85.81
8699;BME280;4386;51.236;6.742;2023-02-19T06:32:30;101568.22;;;11.58;85.83
8699;BME280;4386;51.236;6.742;2023-02-19T06:33:32;101564.72;;;11.57;85.87
8699;BME280;4386;51.236;6.742;2023-02-19T06:34:36;101568.31;;;11.56;86.00
8699;BME280;4386;51.236;6.742;2023-02-19T06:35:37;101568.31;;;11.56;86.01
8699;BME280;4386;51.236;6.742;2023-02-19T06:36:50;101571.91;;;11.55;85.92
8699;BME280;4386;51.236;6.742;2023-02-19T06:37:59;101576.41;;;11.55;86.03
8699;BME280;4386;51.236;6.742;2023-02-19T06:39:04;101580.00;;;11.54;86.04
8699;BME280;4386;51.236;6.742;2023-02-19T06:40:08;101573.84;;;11.53;85.69
8699;BME280;4386;51.236;6.742;2023-02-19T06:41:11;101580.94;;;11.52;85.78
8699;BME280;4386;51.236;6.742;2023-02-19T06:42:13;101577.44;;;11.52;85.96
8699;BME280;4386;51.236;6.742;2023-02-19T06:43:16;101586.38;;;11.51;85.94